createdAt,value
2022-11-06T00:01:57.594Z,101050.00
2022-11-06T00:04:24.593Z,101053.66
2022-11-06T00:06:51.488Z,101050.97
2022-11-06T00:09:21.102Z,101057.13
2022-11-06T00:11:49.994Z,101048.16
2022-11-06T00:14:17.969Z,101051.72
2022-11-06T00:16:46.630Z,101054.19
2022-11-06T00:19:14.417Z,101054.31
2022-11-06T00:21:41.669Z,101053.22
2022-11-06T00:24:10.685Z,101039.78
2022-11-06T00:26:37.787Z,101042.59
2022-11-06T00:29:06.344Z,101041.63
2022-11-06T00:31:37.848Z,101026.13
2022-11-06T00:34:07.550Z,101045.94
2022-11-06T00:36:35.425Z,101048.63
2022-11-06T00:39:02.676Z,101043.44
2022-11-06T00:41:29.687Z,101040.66
2022-11-06T00:44:00.224Z,101041.94
2022-11-06T00:46:27.865Z,101034.84
2022-11-06T00:48:55.921Z,101039.25
2022-11-06T00:51:29.981Z,101042.06
2022-11-06T00:54:00.559Z,101031.19
2022-11-06T00:56:28.520Z,101043.66
2022-11-06T00:58:56.192Z,101034.72
2022-11-06T01:01:34.998Z,101043.66
2022-11-06T01:04:11.102Z,101029.25
2022-11-06T01:06:41.426Z,101030.31
2022-11-06T01:09:10.703Z,101028.63
2022-11-06T01:14:32.344Z,101011.72
2022-11-06T01:16:59.305Z,101018.16
2022-11-06T01:19:26.250Z,101023.44
2022-11-06T01:21:53.830Z,101018.06
2022-11-06T01:24:26.765Z,101016.31
2022-11-06T01:29:45.979Z,101014.84
2022-11-06T01:32:13.161Z,101004.28
2022-11-06T01:34:40.418Z,101007.06
2022-11-06T01:37:11.746Z,101012.63
2022-11-06T01:39:41.333Z,101008.97
2022-11-06T01:42:12.738Z,101007.25
2022-11-06T01:44:42.775Z,101002.94
2022-11-06T01:47:28.511Z,100999.31
2022-11-06T01:50:00.635Z,100992.97
2022-11-06T01:52:29.686Z,101002.63
2022-11-06T01:55:16.210Z,100997.25
2022-11-06T01:57:43.749Z,100999.94
2022-11-06T02:00:11.864Z,101002.53
2022-11-06T02:02:40.466Z,100998.97
2022-11-06T02:05:08.591Z,100995.25
2022-11-06T02:07:36.794Z,100995.25
2022-11-06T02:10:04.630Z,100989.97
2022-11-06T02:12:53.488Z,100991.59
2022-11-06T02:15:34.882Z,100990.72
2022-11-06T02:18:34.634Z,100991.69
2022-11-06T02:21:35.733Z,100987.97
2022-11-06T02:24:48.724Z,100977.41
2022-11-06T02:27:22.693Z,100971.16
2022-11-06T02:30:05.988Z,100972.94
2022-11-06T02:32:59.434Z,100962.19
2022-11-06T02:35:47.095Z,100952.53
2022-11-06T02:38:34.167Z,100954.69
2022-11-06T02:41:08.199Z,100952.97
2022-11-06T02:43:43.275Z,100955.97
2022-11-06T02:46:16.722Z,100956.03
2022-11-06T02:48:56.204Z,100951.97
2022-11-06T02:51:26.648Z,100949.06
2022-11-06T02:53:58.838Z,100952.81
2022-11-06T02:56:32.105Z,100948.28
2022-11-06T02:59:11.122Z,100952.28
2022-11-06T03:01:46.739Z,100937.13
2022-11-06T03:04:24.904Z,100933.47
2022-11-06T03:07:01.913Z,100930.03
2022-11-06T03:09:33.032Z,100925.63
2022-11-06T03:12:09.206Z,100931.31
2022-11-06T03:14:53.794Z,100927.66
2022-11-06T03:17:39.266Z,100928.94
2022-11-06T03:20:21.155Z,100948.63
2022-11-06T03:23:14.697Z,100942.38
2022-11-06T03:25:50.826Z,100938.19
2022-11-06T03:28:33.798Z,100936.22
2022-11-06T03:31:06.850Z,100935.56
2022-11-06T03:33:50.080Z,100931.28
2022-11-06T03:36:33.663Z,100933.84
2022-11-06T03:39:10.201Z,100930.19
2022-11-06T03:41:50.918Z,100925.91
2022-11-06T03:44:23.731Z,100914.09
2022-11-06T03:47:02.634Z,100918.94
2022-11-06T03:49:44.198Z,100923.41
2022-11-06T03:52:24.757Z,100926.09
2022-11-06T03:55:14.807Z,100915.78
2022-11-06T03:57:46.997Z,100923.00
2022-11-06T04:00:17.088Z,100915.91
2022-11-06T04:02:53.310Z,100915.31
2022-11-06T04:05:24.703Z,100922.66
2022-11-06T04:08:14.920Z,100929.81
2022-11-06T04:11:06.168Z,100937.22
2022-11-06T04:13:54.255Z,100926.06
2022-11-06T04:16:22.078Z,100930.44
2022-11-06T04:18:48.970Z,100933.22
2022-11-06T04:21:33.751Z,100929.69
2022-11-06T04:25:19.634Z,100928.94
2022-11-06T04:28:28.409Z,100930.00
2022-11-06T04:31:20.402Z,100930.19
2022-11-06T04:34:09.567Z,100938.38
2022-11-06T04:36:48.264Z,100930.19
2022-11-06T04:40:04.302Z,100926.88
2022-11-06T04:42:43.911Z,100937.72
2022-11-06T04:45:20.597Z,100939.63
2022-11-06T04:47:48.316Z,100934.38
2022-11-06T04:50:17.608Z,100925.44
2022-11-06T04:52:45.966Z,100924.59
2022-11-06T04:55:13.134Z,100923.72
2022-11-06T04:57:40.141Z,100914.03
2022-11-06T05:00:10.958Z,100923.94
2022-11-06T05:02:37.994Z,100926.63
2022-11-06T05:05:05.538Z,100932.84
2022-11-06T05:07:32.643Z,100940.03
2022-11-06T05:09:59.518Z,100930.16
2022-11-06T05:12:26.462Z,100933.03
2022-11-06T05:14:53.538Z,100907.47
2022-11-06T05:17:20.476Z,100912.31
2022-11-06T05:19:47.382Z,100905.34
2022-11-06T05:22:32.654Z,100905.44
2022-11-06T05:24:59.665Z,100900.94
2022-11-06T05:27:26.570Z,100910.06
2022-11-06T05:29:53.640Z,100911.13
2022-11-06T05:32:20.566Z,100914.66
2022-11-06T05:34:47.592Z,100910.47
2022-11-06T05:37:14.625Z,100917.63
2022-11-06T05:39:42.222Z,100915.06
2022-11-06T05:42:09.349Z,100926.63
2022-11-06T05:44:37.683Z,100906.25
2022-11-06T05:47:04.667Z,100903.66
2022-11-06T05:49:31.637Z,100910.94
2022-11-06T05:51:58.562Z,100909.16
2022-11-06T05:54:25.505Z,100905.69
2022-11-06T05:56:52.447Z,100886.81
2022-11-06T05:59:19.508Z,100889.59
2022-11-06T06:01:46.504Z,100893.44
2022-11-06T06:04:13.696Z,100889.00
2022-11-06T06:06:40.768Z,100881.75
2022-11-06T06:09:07.930Z,100883.66
2022-11-06T06:11:35.070Z,100878.28
2022-11-06T06:14:02.222Z,100878.28
2022-11-06T06:16:29.200Z,100875.59
2022-11-06T06:18:56.299Z,100885.38
2022-11-06T06:21:23.491Z,100880.97
2022-11-06T06:23:50.545Z,100874.66
2022-11-06T06:26:17.526Z,100866.59
2022-11-06T06:28:44.677Z,100864.78
2022-11-06T06:31:11.845Z,100869.19
2022-11-06T06:33:38.771Z,100872.72
2022-11-06T06:36:08.609Z,100862.19
2022-11-06T06:38:35.842Z,100870.47
2022-11-06T06:41:05.919Z,100869.41
2022-11-06T06:43:33.381Z,100879.06
2022-11-06T06:46:02.222Z,100879.72
2022-11-06T06:48:29.684Z,100870.81
2022-11-06T06:51:01.811Z,100872.44
2022-11-06T06:53:29.546Z,100870.50
2022-11-06T06:56:00.425Z,100866.75
2022-11-06T06:58:29.380Z,100871.16
2022-11-06T07:01:04.126Z,100863.88
2022-11-06T07:03:32.177Z,100868.06
2022-11-06T07:05:59.437Z,100866.91
2022-11-06T07:08:27.425Z,100870.25
2022-11-06T07:11:00.148Z,100871.66
2022-11-06T07:13:30.262Z,100885.06
2022-11-06T07:16:06.145Z,100875.84
2022-11-06T07:18:34.531Z,100880.03
2022-11-06T07:21:05.027Z,100869.22
2022-11-06T07:23:32.030Z,100865.59
2022-11-06T07:25:58.962Z,100870.00
2022-11-06T07:28:25.904Z,100873.41
2022-11-06T07:30:52.934Z,100876.97
2022-11-06T07:33:19.993Z,100871.59
2022-11-06T07:35:46.905Z,100864.41
2022-11-06T07:38:14.160Z,100858.94
2022-11-06T07:40:41.499Z,100864.19
2022-11-06T07:43:11.338Z,100857.00
2022-11-06T07:45:39.017Z,100861.28
2022-11-06T07:48:06.891Z,100868.19
2022-11-06T07:50:34.160Z,100865.38
2022-11-06T07:53:04.451Z,100867.75
2022-11-06T07:55:31.510Z,100875.19
2022-11-06T07:57:59.591Z,100868.34
2022-11-06T08:00:27.031Z,100868.66
2022-11-06T08:02:54.140Z,100871.03
2022-11-06T08:05:21.270Z,100869.09
2022-11-06T08:07:48.325Z,100857.69
2022-11-06T08:10:15.326Z,100872.00
2022-11-06T08:12:42.453Z,100861.16
2022-11-06T08:15:09.977Z,100859.94
2022-11-06T08:17:37.505Z,100861.97
2022-11-06T08:20:05.002Z,100858.13
2022-11-06T08:22:32.017Z,100858.00
2022-11-06T08:24:58.939Z,100850.44
2022-11-06T08:27:25.854Z,100846.69
2022-11-06T08:29:53.042Z,100848.38
2022-11-06T08:32:19.941Z,100852.59
2022-11-06T08:34:46.880Z,100839.25
2022-11-06T08:37:13.861Z,100845.16
2022-11-06T08:39:40.755Z,100849.03
2022-11-06T08:42:07.669Z,100842.75
2022-11-06T08:44:34.631Z,100851.94
2022-11-06T08:47:01.617Z,100840.81
2022-11-06T08:49:28.605Z,100840.53
2022-11-06T08:51:55.715Z,100843.97
2022-11-06T08:54:22.875Z,100834.41
2022-11-06T08:56:49.838Z,100814.00
2022-11-06T08:59:16.875Z,100816.06
2022-11-06T09:01:44.421Z,100817.28
2022-11-06T09:04:12.322Z,100807.69
2022-11-06T09:06:39.430Z,100807.78
2022-11-06T09:09:06.344Z,100817.59
2022-11-06T09:11:33.800Z,100810.09
2022-11-06T09:14:00.825Z,100803.78
2022-11-06T09:16:27.769Z,100811.34
2022-11-06T09:18:56.212Z,100811.75
2022-11-06T09:21:24.088Z,100806.66
2022-11-06T09:23:51.271Z,100795.63
2022-11-06T09:26:18.530Z,100792.94
2022-11-06T09:28:46.749Z,100797.34
2022-11-06T09:31:13.641Z,100794.47
2022-11-06T09:33:40.606Z,100788.88
2022-11-06T09:36:08.066Z,100789.63
2022-11-06T09:38:35.048Z,100782.25
2022-11-06T09:41:03.679Z,100780.56
2022-11-06T09:44:05.887Z,100792.84
2022-11-06T09:46:42.309Z,100776.91
2022-11-06T09:49:38.469Z,100780.63
2022-11-06T09:52:17.453Z,100777.63
2022-11-06T09:54:56.776Z,100778.88
2022-11-06T09:57:45.073Z,100795.34
2022-11-06T10:00:15.864Z,100777.78
2022-11-06T10:02:50.789Z,100777.63
2022-11-06T10:05:32.626Z,100774.81
2022-11-06T10:08:06.375Z,100776.09
2022-11-06T10:11:02.294Z,100780.81
2022-11-06T10:13:54.227Z,100760.41
2022-11-06T10:16:43.536Z,100753.44
2022-11-06T10:19:40.112Z,100742.00
2022-11-06T10:22:16.488Z,100735.81
2022-11-06T10:25:04.340Z,100734.09
2022-11-06T10:27:42.331Z,100723.41
2022-11-06T10:30:15.913Z,100727.78
2022-11-06T10:33:13.968Z,100720.09
2022-11-06T10:36:00.557Z,100712.88
2022-11-06T10:38:38.474Z,100718.59
2022-11-06T10:41:05.674Z,100707.34
2022-11-06T10:43:46.042Z,100697.22
2022-11-06T10:46:25.485Z,100713.78
2022-11-06T10:49:01.245Z,100708.47
2022-11-06T10:52:20.762Z,100705.34
2022-11-06T10:55:32.838Z,100709.00
2022-11-06T10:58:03.676Z,100713.28
2022-11-06T11:00:32.530Z,100717.53
2022-11-06T11:03:07.037Z,100711.75
2022-11-06T11:05:43.951Z,100712.63
2022-11-06T11:08:45.375Z,100713.78
2022-11-06T11:11:15.506Z,100715.44
2022-11-06T11:14:05.925Z,100704.16
2022-11-06T11:16:39.668Z,100696.97
2022-11-06T11:19:25.523Z,100703.53
2022-11-06T11:22:05.822Z,100697.34
2022-11-06T11:24:33.265Z,100699.00
2022-11-06T11:27:07.000Z,100689.53
2022-11-06T11:29:48.346Z,100679.00
2022-11-06T11:32:17.802Z,100688.09
2022-11-06T11:34:54.038Z,100673.03
2022-11-06T11:37:29.895Z,100660.91
2022-11-06T11:40:37.693Z,100651.44
2022-11-06T11:43:24.138Z,100649.41
2022-11-06T11:46:09.064Z,100639.75
2022-11-06T11:48:46.219Z,100634.16
2022-11-06T11:51:40.712Z,100632.63
2022-11-06T11:54:20.657Z,100624.53
2022-11-06T11:57:04.738Z,100630.41
2022-11-06T12:00:05.733Z,100625.44
2022-11-06T12:02:46.982Z,100622.75
2022-11-06T12:05:18.343Z,100613.84
2022-11-06T12:07:54.688Z,100606.47
2022-11-06T12:10:39.419Z,100608.94
2022-11-06T12:13:24.083Z,100599.78
2022-11-06T12:16:18.616Z,100589.66
2022-11-06T12:18:58.461Z,100592.50
2022-11-06T12:21:36.263Z,100598.13
2022-11-06T12:24:15.181Z,100588.88
2022-11-06T12:26:52.628Z,100586.63
2022-11-06T12:29:45.288Z,100574.91
2022-11-06T12:33:04.823Z,100571.22
2022-11-06T12:35:38.517Z,100577.97
2022-11-06T12:38:19.922Z,100569.56
2022-11-06T12:41:11.624Z,100568.41
2022-11-06T12:43:42.579Z,100568.88
2022-11-06T12:46:37.010Z,100557.94
2022-11-06T12:49:38.024Z,100560.00
2022-11-06T12:52:43.491Z,100547.38
2022-11-06T12:55:32.038Z,100521.56
2022-11-06T12:58:15.708Z,100520.56
2022-11-06T13:01:16.799Z,100506.50
2022-11-06T13:04:22.722Z,100502.78
2022-11-06T13:07:38.485Z,100490.97
2022-11-06T13:10:18.068Z,100488.47
2022-11-06T13:13:35.202Z,100489.34
2022-11-06T13:16:13.684Z,100484.22
2022-11-06T13:18:58.721Z,100474.38
2022-11-06T13:21:55.744Z,100486.75
2022-11-06T13:24:39.642Z,100475.53
2022-11-06T13:27:34.168Z,100469.00
2022-11-06T13:30:14.836Z,100465.31
2022-11-06T13:33:07.024Z,100464.78
2022-11-06T13:35:37.897Z,100455.81
2022-11-06T13:38:09.881Z,100443.75
2022-11-06T13:40:42.984Z,100451.47
2022-11-06T13:43:45.585Z,100448.03
2022-11-06T13:46:50.107Z,100453.47
2022-11-06T13:49:42.794Z,100439.75
2022-11-06T13:52:42.002Z,100442.03
2022-11-06T13:55:33.011Z,100436.63
2022-11-06T13:58:41.077Z,100429.53
2022-11-06T14:01:51.341Z,100425.81
2022-11-06T14:04:43.149Z,100419.84
2022-11-06T14:07:11.554Z,100422.44
2022-11-06T14:09:44.444Z,100424.84
2022-11-06T14:12:22.917Z,100421.00
2022-11-06T14:15:34.967Z,100417.84
2022-11-06T14:18:02.466Z,100434.22
2022-11-06T14:20:38.881Z,100430.22
2022-11-06T14:23:30.559Z,100426.25
2022-11-06T14:26:12.560Z,100415.88
2022-11-06T14:28:42.813Z,100427.66
2022-11-06T14:31:13.487Z,100415.41
2022-11-06T14:33:42.239Z,100423.69
2022-11-06T14:36:25.149Z,100418.69
2022-11-06T14:38:53.745Z,100423.78
2022-11-06T14:41:35.915Z,100432.31
2022-11-06T14:44:32.722Z,100428.31
2022-11-06T14:47:03.603Z,100431.56
2022-11-06T14:49:42.198Z,100434.69
2022-11-06T14:52:13.871Z,100439.50
2022-11-06T14:55:05.515Z,100421.00
2022-11-06T14:57:49.528Z,100425.44
2022-11-06T15:00:41.260Z,100430.38
2022-11-06T15:03:26.639Z,100428.66
2022-11-06T15:06:05.346Z,100429.63
2022-11-06T15:08:48.205Z,100428.06
2022-11-06T15:11:30.419Z,100431.19
2022-11-06T15:14:03.414Z,100431.00
2022-11-06T15:16:40.396Z,100435.25
2022-11-06T15:19:14.935Z,100429.25
2022-11-06T15:22:07.126Z,100425.13
2022-11-06T15:24:45.614Z,100427.22
2022-11-06T15:27:18.275Z,100409.88
2022-11-06T15:29:49.395Z,100408.31
2022-11-06T15:32:24.869Z,100409.41
2022-11-06T15:35:14.535Z,100406.84
2022-11-06T15:38:08.371Z,100406.84
2022-11-06T15:40:38.776Z,100402.84
2022-11-06T15:43:17.509Z,100386.94
2022-11-06T15:45:44.491Z,100391.88
2022-11-06T15:48:22.918Z,100388.47
2022-11-06T15:50:49.921Z,100382.59
2022-11-06T15:53:27.450Z,100375.78
2022-11-06T15:56:06.058Z,100376.19
2022-11-06T15:58:37.888Z,100376.91
2022-11-06T16:01:07.639Z,100372.63
2022-11-06T16:03:53.793Z,100370.06
2022-11-06T16:06:21.603Z,100361.13
2022-11-06T16:08:50.666Z,100351.19
2022-11-06T16:11:19.876Z,100357.41
2022-11-06T16:13:47.651Z,100347.66
2022-11-06T16:16:42.097Z,100347.34
2022-11-06T16:19:31.238Z,100339.56
2022-11-06T16:22:06.052Z,100333.28
2022-11-06T16:24:47.641Z,100337.13
2022-11-06T16:27:15.578Z,100338.84
2022-11-06T16:29:54.705Z,100324.63
2022-11-06T16:32:27.074Z,100330.16
2022-11-06T16:34:55.187Z,100329.28
2022-11-06T16:37:27.973Z,100316.78
2022-11-06T16:39:57.022Z,100332.97
2022-11-06T16:42:38.734Z,100330.28
2022-11-06T16:45:26.680Z,100326.47
2022-11-06T16:48:27.102Z,100325.59
2022-11-06T16:50:56.982Z,100327.31
2022-11-06T16:53:30.991Z,100325.47
2022-11-06T16:56:06.235Z,100311.28
2022-11-06T16:58:49.055Z,100320.50
2022-11-06T17:01:20.418Z,100325.03
2022-11-06T17:04:01.023Z,100322.31
2022-11-06T17:06:32.034Z,100329.56
2022-11-06T17:09:09.814Z,100315.38
2022-11-06T17:11:38.609Z,100319.28
2022-11-06T17:14:18.855Z,100314.50
2022-11-06T17:16:52.464Z,100317.25
2022-11-06T17:19:21.085Z,100308.63
2022-11-06T17:21:49.316Z,100319.66
2022-11-06T17:24:35.947Z,100315.00
2022-11-06T17:27:03.376Z,100322.53
2022-11-06T17:29:30.348Z,100311.75
2022-11-06T17:31:57.438Z,100307.38
2022-11-06T17:34:24.401Z,100304.69
2022-11-06T17:36:51.431Z,100299.69
2022-11-06T17:39:18.404Z,100304.59
2022-11-06T17:41:45.621Z,100305.47
2022-11-06T17:44:13.103Z,100299.38
2022-11-06T17:46:46.747Z,100299.38
2022-11-06T17:49:18.085Z,100306.00
2022-11-06T17:51:53.191Z,100307.03
2022-11-06T17:54:26.938Z,100306.41
2022-11-06T17:56:56.004Z,100301.16
2022-11-06T17:59:26.198Z,100306.53
2022-11-06T18:01:54.943Z,100307.41
2022-11-06T18:04:23.877Z,100308.25
2022-11-06T18:06:52.698Z,100301.00
2022-11-06T18:09:21.300Z,100296.50
2022-11-06T18:11:54.067Z,100297.63
2022-11-06T18:14:22.551Z,100285.97
2022-11-06T18:16:49.709Z,100272.47
2022-11-06T18:19:21.572Z,100279.59
2022-11-06T18:21:49.496Z,100287.97
2022-11-06T18:24:16.691Z,100278.00
2022-11-06T18:26:43.734Z,100267.88
2022-11-06T18:29:13.131Z,100276.53
2022-11-06T18:31:40.483Z,100262.72
2022-11-06T18:34:14.061Z,100256.06
2022-11-06T18:36:45.518Z,100249.59
2022-11-06T18:39:12.429Z,100244.75
2022-11-06T18:41:39.482Z,100242.91
2022-11-06T18:44:06.405Z,100256.63
2022-11-06T18:46:33.394Z,100239.72
2022-11-06T18:49:00.393Z,100238.28
2022-11-06T18:51:36.008Z,100241.13
2022-11-06T18:54:10.865Z,100238.81
2022-11-06T18:56:38.747Z,100236.81
2022-11-06T18:59:07.963Z,100242.31
2022-11-06T19:01:35.552Z,100243.56
2022-11-06T19:04:04.022Z,100234.50
2022-11-06T19:06:32.410Z,100229.56
2022-11-06T19:08:59.895Z,100234.38
2022-11-06T19:11:26.902Z,100229.75
2022-11-06T19:13:53.897Z,100227.84
2022-11-06T19:16:21.359Z,100216.28
2022-11-06T19:21:30.469Z,100212.47
2022-11-06T19:24:04.459Z,100207.84
2022-11-06T19:26:34.259Z,100179.91
2022-11-06T19:29:01.693Z,100167.69
2022-11-06T19:31:30.124Z,100149.13
2022-11-06T19:33:59.354Z,100138.16
2022-11-06T19:36:27.269Z,100141.97
2022-11-06T19:38:54.822Z,100147.59
2022-11-06T19:41:22.080Z,100154.09
2022-11-06T19:43:49.044Z,100157.03
2022-11-06T19:46:24.069Z,100153.75
2022-11-06T19:48:52.009Z,100149.47
2022-11-06T19:51:18.994Z,100153.53
2022-11-06T19:53:45.999Z,100156.44
2022-11-06T19:56:16.473Z,100165.78
2022-11-06T19:58:43.853Z,100154.06
2022-11-06T20:01:13.354Z,100163.47
2022-11-06T20:03:41.300Z,100169.81
2022-11-06T20:06:09.045Z,100179.00
2022-11-06T20:08:38.544Z,100176.31
2022-11-06T20:11:12.351Z,100171.91
2022-11-06T20:13:43.776Z,100175.44
2022-11-06T20:16:18.379Z,100177.03
2022-11-06T20:18:58.009Z,100182.28
2022-11-06T20:21:30.655Z,100195.34
2022-11-06T20:23:57.943Z,100190.81
2022-11-06T20:26:25.416Z,100192.41
2022-11-06T20:28:52.488Z,100197.41
2022-11-06T20:31:20.351Z,100184.28
2022-11-06T20:33:47.954Z,100174.88
2022-11-06T20:36:23.448Z,100181.56
2022-11-06T20:38:53.264Z,100181.19
2022-11-06T20:41:21.654Z,100177.25
2022-11-06T20:43:48.801Z,100167.22
2022-11-06T20:46:17.489Z,100168.78
2022-11-06T20:48:45.526Z,100183.72
2022-11-06T20:51:16.920Z,100193.34
2022-11-06T20:53:44.918Z,100183.78
2022-11-06T20:56:15.813Z,100184.84
2022-11-06T20:58:43.848Z,100171.13
2022-11-06T21:01:17.228Z,100177.75
2022-11-06T21:03:45.633Z,100170.53
2022-11-06T21:06:12.911Z,100167.97
2022-11-06T21:08:41.694Z,100168.97
2022-11-06T21:11:12.043Z,100174.72
2022-11-06T21:13:40.747Z,100169.19
2022-11-06T21:16:30.673Z,100171.13
2022-11-06T21:19:00.276Z,100167.66
2022-11-06T21:21:33.169Z,100161.13
2022-11-06T21:24:02.210Z,100173.47
2022-11-06T21:26:33.741Z,100168.22
2022-11-06T21:29:03.271Z,100181.28
2022-11-06T21:31:31.979Z,100170.53
2022-11-06T21:34:02.320Z,100185.84
2022-11-06T21:36:37.511Z,100189.50
2022-11-06T21:39:10.517Z,100187.41
2022-11-06T21:41:38.644Z,100189.13
2022-11-06T21:44:07.020Z,100189.97
2022-11-06T21:46:34.814Z,100185.44
2022-11-06T21:49:01.721Z,100194.22
2022-11-06T21:51:32.480Z,100196.91
2022-11-06T21:54:19.505Z,100207.69
2022-11-06T21:56:50.817Z,100205.00
2022-11-06T21:59:24.504Z,100206.84
2022-11-06T22:01:51.753Z,100194.50
2022-11-06T22:04:18.844Z,100194.16
2022-11-06T22:06:46.154Z,100196.59
2022-11-06T22:09:14.087Z,100186.09
2022-11-06T22:11:43.932Z,100185.25
2022-11-06T22:14:16.558Z,100195.00
2022-11-06T22:16:46.928Z,100193.19
2022-11-06T22:19:15.677Z,100194.75
2022-11-06T22:21:43.450Z,100183.00
2022-11-06T22:24:13.029Z,100195.34
2022-11-06T22:26:40.146Z,100199.50
2022-11-06T22:29:12.484Z,100195.81
2022-11-06T22:31:39.546Z,100201.91
2022-11-06T22:34:06.719Z,100199.81
2022-11-06T22:36:33.917Z,100188.06
2022-11-06T22:39:06.433Z,100200.69
2022-11-06T22:41:33.726Z,100199.09
2022-11-06T22:44:01.037Z,100189.19
2022-11-06T22:46:29.545Z,100201.50
2022-11-06T22:48:57.545Z,100197.84
2022-11-06T22:51:28.600Z,100202.38
2022-11-06T22:53:56.202Z,100203.09
2022-11-06T22:56:25.274Z,100202.84
2022-11-06T22:59:10.097Z,100200.00
2022-11-06T23:01:42.408Z,100208.81
2022-11-06T23:04:14.916Z,100206.84
2022-11-06T23:06:44.540Z,100201.31
2022-11-06T23:09:11.661Z,100209.97
2022-11-06T23:11:38.617Z,100202.63
2022-11-06T23:14:08.877Z,100198.06
2022-11-06T23:16:55.479Z,100205.75
2022-11-06T23:19:23.138Z,100215.56
2022-11-06T23:21:50.628Z,100211.75
2022-11-06T23:24:17.643Z,100218.00
2022-11-06T23:26:45.033Z,100220.44
2022-11-06T23:29:12.076Z,100225.69
2022-11-06T23:31:41.054Z,100224.69
2022-11-06T23:34:08.662Z,100228.13
2022-11-06T23:36:35.777Z,100220.03
2022-11-06T23:39:02.754Z,100229.69
2022-11-06T23:41:48.386Z,100231.28
2022-11-06T23:44:34.437Z,100234.81
2022-11-06T23:47:01.702Z,100231.03
2022-11-06T23:49:28.984Z,100231.88
2022-11-06T23:51:56.259Z,100230.00
2022-11-06T23:54:23.338Z,100228.91
2022-11-06T23:56:50.566Z,100227.06
2022-11-06T23:59:17.586Z,100221.53
